ENAL/AES METAR and TAF weather

Enter ICAO airport designator
Station Type Date Time Source
ENAL METAR 2021/03/08 03:50 UTC NOAA

ENAL 080350Z AUTO 14010KT 9999 SCT082/// BKN098/// M01/M05 Q1021


Station Type Date Time Source
ENAL Decoded METAR 2021/03/08 03:50 UTC NOAA

Alesund / Vigra, Norway (ENAL) 62-34N 006-07E 22M
Mar 07, 2021 - 10:50 PM EST / 2021.03.08 0350 UTC
Wind: from the SE (140 degrees) at 12 MPH (10 KT):0
Visibility: greater than 7 mile(s):0
Sky conditions: mostly cloudy
Temperature: 30 F (-1 C)
Windchill: 19 F (-7 C):1
Dew Point: 23 F (-5 C)
Relative Humidity: 74%
Pressure (altimeter): 30.15 in. Hg (1021 hPa)
ob: ENAL 080350Z AUTO 14010KT 9999 SCT082/// BKN098/// M01/M05 Q1021
cycle: 4

Station Type Date Time Source
ENAL TAF UTC NOAA

Error!

Example: see airport list